»·PEaware :: N529B KBFL-KCMA

N529B :: KBFL-KCMA

FLIGHT INFORMATION

Flight Status: Arrived
Operator: Privately registered:
United States
More flights under this callsign
Pilot: Kim B. (19519)
Aircraft: Unknown
(B29)
More flights by this aircraft type
Origin: KBFL Meadows
United States
Destination: KCMA Camarillo
United States
More flights between these airports :: More routes between these airports
Route: +KBFL MARIC4 GMN V23 TWINE KCMA
File this flight plan on PilotEdge
Remarks:
Altitude:
(Current/Filed)
10,000ft
Speed:
(Current/Filed)
180kts
Departed: 22-Sep-18 05:26 PM
Arrived: 22-Sep-18 05:59 PM
Distance/Time
Traveled:
73nm/0:32
Distance/Time
To Go:
Arrived

Flight Plot

Page will automatically refresh every two minutes.

Flight plan parsing failed; only flown route is shown


Map Options




Map Legend


Flown Route
Filed Route
Departure Airport
Arrival Airport
Navaid (VOR, NDB)
Fix

Horizontal Profiles

Position Reports

Time Latitude Longitude Heading Altitude Ground
Speed
22-Sep-18 16:56 35.426035 -119.042594 357 503ft 0kts
22-Sep-18 16:57 35.426035 -119.042594 357 503ft 0kts
22-Sep-18 16:58 35.426035 -119.042594 357 503ft 0kts
22-Sep-18 16:59 35.426035 -119.042594 357 503ft 0kts
22-Sep-18 17:00 35.426035 -119.042594 357 503ft 0kts
22-Sep-18 17:01 35.426035 -119.042594 357 503ft 0kts
22-Sep-18 17:02 35.426035 -119.042594 357 503ft 0kts
22-Sep-18 17:03 35.426035 -119.042594 357 503ft 0kts
22-Sep-18 17:04 35.426035 -119.042594 357 503ft 0kts
22-Sep-18 17:05 35.426035 -119.042594 357 503ft 0kts
22-Sep-18 17:06 35.426035 -119.042594 357 503ft 0kts
22-Sep-18 17:07 35.426035 -119.042594 357 503ft 0kts
22-Sep-18 17:08 35.426035 -119.042594 357 503ft 0kts
22-Sep-18 17:09 35.426035 -119.042594 357 503ft 0kts
22-Sep-18 17:10 35.426035 -119.042594 357 503ft 0kts
22-Sep-18 17:11 35.426035 -119.042594 357 503ft 0kts
22-Sep-18 17:12 35.426035 -119.042594 357 503ft 0kts
22-Sep-18 17:13 35.426035 -119.042594 357 503ft 0kts
22-Sep-18 17:14 35.426035 -119.042594 357 503ft 0kts
22-Sep-18 17:15 35.426035 -119.042594 357 503ft 0kts
22-Sep-18 17:16 35.426035 -119.042594 357 503ft 0kts
22-Sep-18 17:17 35.426035 -119.042594 357 503ft 0kts
22-Sep-18 17:18 35.426035 -119.042594 357 503ft 0kts
22-Sep-18 17:19 35.426062 -119.042618 318 503ft 0kts
22-Sep-18 17:20 35.425274 -119.044423 276 503ft 12kts
22-Sep-18 17:21 35.425305 -119.044582 286 503ft 0kts
22-Sep-18 17:22 35.425305 -119.044582 286 503ft 0kts
22-Sep-18 17:23 35.425305 -119.044582 286 503ft 0kts
22-Sep-18 17:24 35.425305 -119.044584 286 503ft 0kts
22-Sep-18 17:25 35.425305 -119.044584 286 503ft 0kts
22-Sep-18 17:26 35.425305 -119.044584 286 503ft 0kts
22-Sep-18 17:27 35.425518 -119.045664 277 503ft 9kts
22-Sep-18 17:28 35.434373 -119.056711 315 504ft 121kts
22-Sep-18 17:29 35.453494 -119.095978 253 1190ft 158kts
22-Sep-18 17:30 35.429850 -119.142343 202 2105ft 184kts
22-Sep-18 17:31 35.380940 -119.171025 207 2964ft 202kts
22-Sep-18 17:32 35.331996 -119.203877 210 3772ft 198kts
22-Sep-18 17:33 35.285060 -119.236705 209 4570ft 192kts
22-Sep-18 17:34 35.238288 -119.261975 160 5364ft 184kts
22-Sep-18 17:35 35.206813 -119.216459 125 6210ft 174kts
22-Sep-18 17:36 35.178975 -119.169079 125 7006ft 169kts
22-Sep-18 17:37 35.151730 -119.122560 125 7744ft 171kts
22-Sep-18 17:38 35.123075 -119.073690 125 8464ft 182kts
22-Sep-18 17:39 35.092922 -119.022344 125 9170ft 193kts
22-Sep-18 17:40 35.060659 -118.967487 125 9882ft 202kts
22-Sep-18 17:41 35.011090 -118.932162 164 9981ft 237kts
22-Sep-18 17:42 34.943645 -118.909161 164 9974ft 265kts
22-Sep-18 17:43 34.870546 -118.884103 164 9971ft 282kts
22-Sep-18 17:44 34.795631 -118.857402 157 9964ft 275kts
22-Sep-18 17:45 34.727167 -118.823055 157 9966ft 266kts
22-Sep-18 17:46 34.660112 -118.789704 157 9965ft 256kts
22-Sep-18 17:47 34.595273 -118.757536 157 9995ft 248kts
22-Sep-18 17:48 34.533275 -118.726823 157 9991ft 243kts
22-Sep-18 17:49 34.471233 -118.696131 157 9991ft 239kts
22-Sep-18 17:50 34.409992 -118.665912 157 9688ft 232kts
22-Sep-18 17:51 34.354578 -118.638601 157 8909ft 216kts
22-Sep-18 17:52 34.298249 -118.623102 212 7563ft 221kts
22-Sep-18 17:53 34.259765 -118.678223 224 6439ft 215kts
22-Sep-18 17:54 34.221109 -118.732418 258 5006ft 220kts
22-Sep-18 17:55 34.211436 -118.796272 259 5089ft 176kts
22-Sep-18 17:56 34.211623 -118.857175 270 4295ft 197kts
22-Sep-18 17:57 34.212242 -118.923043 270 3091ft 182kts
22-Sep-18 17:58 34.212538 -118.982364 267 1768ft 164kts
22-Sep-18 17:59 34.213129 -119.033431 271 950ft 141kts
22-Sep-18 18:00 34.213628 -119.079244 272 132ft 128kts
22-Sep-18 18:01 34.213847 -119.103050 268 82ft 31kts
22-Sep-18 18:02 34.213194 -119.104230 183 82ft 0kts
22-Sep-18 18:03 34.212887 -119.104167 157 82ft 9kts
22-Sep-18 18:04 34.211026 -119.096694 91 82ft 33kts
22-Sep-18 18:05 34.210743 -119.093205 41 82ft 0kts
22-Sep-18 18:06 34.210743 -119.093205 41 82ft 0kts
22-Sep-18 18:07 34.210743 -119.093205 41 82ft 0kts
22-Sep-18 18:08 34.210743 -119.093205 41 82ft 0kts
22-Sep-18 18:09 34.210743 -119.093205 41 82ft 0kts
22-Sep-18 18:10 34.210743 -119.093205 41 82ft 0kts
22-Sep-18 18:11 34.210743 -119.093205 41 82ft 0kts
22-Sep-18 18:12 34.210743 -119.093205 41 82ft 0kts
22-Sep-18 18:13 34.210743 -119.093205 41 82ft 0kts
22-Sep-18 18:14 34.210743 -119.093205 41 82ft 0kts
22-Sep-18 18:15 34.210743 -119.093205 41 82ft 0kts

Navigation Log

Ident Type
Flight plan parsing failed, navigation log unavailable